sensor_id;sensor_type;location;lat;lon;timestamp;P1;durP1;ratioP1;P2;durP2;ratioP2
69854;SDS011;57146;48.140;16.304;2022-11-15T00:02:34;58.90;;;17.70;;
69854;SDS011;57146;48.140;16.304;2022-11-15T00:05:20;58.50;;;18.17;;
69854;SDS011;57146;48.140;16.304;2022-11-15T00:08:05;54.42;;;16.67;;
69854;SDS011;57146;48.140;16.304;2022-11-15T00:10:54;61.40;;;17.63;;
69854;SDS011;57146;48.140;16.304;2022-11-15T00:13:41;67.65;;;18.20;;
69854;SDS011;57146;48.140;16.304;2022-11-15T00:16:26;62.42;;;18.25;;
69854;SDS011;57146;48.140;16.304;2022-11-15T00:19:12;56.20;;;16.67;;
69854;SDS011;57146;48.140;16.304;2022-11-15T00:21:57;50.72;;;15.60;;
69854;SDS011;57146;48.140;16.304;2022-11-15T00:24:43;53.20;;;16.52;;
69854;SDS011;57146;48.140;16.304;2022-11-15T00:27:28;62.92;;;17.40;;
69854;SDS011;57146;48.140;16.304;2022-11-15T00:30:14;55.15;;;16.92;;
69854;SDS011;57146;48.140;16.304;2022-11-15T00:33:03;58.57;;;17.30;;
69854;SDS011;57146;48.140;16.304;2022-11-15T00:35:49;57.58;;;17.08;;
69854;SDS011;57146;48.140;16.304;2022-11-15T00:38:35;54.08;;;16.42;;
69854;SDS011;57146;48.140;16.304;2022-11-15T00:41:22;84.03;;;19.10;;
69854;SDS011;57146;48.140;16.304;2022-11-15T00:44:08;60.65;;;17.23;;
69854;SDS011;57146;48.140;16.304;2022-11-15T00:46:53;60.50;;;17.70;;
69854;SDS011;57146;48.140;16.304;2022-11-15T00:49:39;62.50;;;17.80;;
69854;SDS011;57146;48.140;16.304;2022-11-15T00:52:24;62.85;;;17.00;;
69854;SDS011;57146;48.140;16.304;2022-11-15T00:55:16;62.88;;;17.05;;
69854;SDS011;57146;48.140;16.304;2022-11-15T00:58:03;58.80;;;16.98;;
69854;SDS011;57146;48.140;16.304;2022-11-15T01:00:49;61.33;;;17.40;;
69854;SDS011;57146;48.140;16.304;2022-11-15T01:03:34;59.00;;;16.85;;
69854;SDS011;57146;48.140;16.304;2022-11-15T01:06:21;58.08;;;15.80;;
69854;SDS011;57146;48.140;16.304;2022-11-15T01:09:06;59.28;;;15.82;;
69854;SDS011;57146;48.140;16.304;2022-11-15T01:11:51;66.60;;;17.60;;
69854;SDS011;57146;48.140;16.304;2022-11-15T01:14:37;64.73;;;16.17;;
69854;SDS011;57146;48.140;16.304;2022-11-15T01:17:22;48.03;;;14.73;;
69854;SDS011;57146;48.140;16.304;2022-11-15T01:20:08;66.25;;;16.42;;
69854;SDS011;57146;48.140;16.304;2022-11-15T01:22:54;50.55;;;14.63;;
69854;SDS011;57146;48.140;16.304;2022-11-15T01:25:40;63.42;;;16.55;;
69854;SDS011;57146;48.140;16.304;2022-11-15T01:28:28;50.20;;;13.70;;
69854;SDS011;57146;48.140;16.304;2022-11-15T01:31:18;54.88;;;15.32;;
69854;SDS011;57146;48.140;16.304;2022-11-15T01:34:04;50.35;;;14.75;;
69854;SDS011;57146;48.140;16.304;2022-11-15T01:36:50;57.58;;;15.75;;
69854;SDS011;57146;48.140;16.304;2022-11-15T01:39:35;56.05;;;15.40;;
69854;SDS011;57146;48.140;16.304;2022-11-15T01:42:20;51.93;;;14.07;;
69854;SDS011;57146;48.140;16.304;2022-11-15T01:45:07;57.53;;;16.40;;
69854;SDS011;57146;48.140;16.304;2022-11-15T01:47:58;54.72;;;15.75;;
69854;SDS011;57146;48.140;16.304;2022-11-15T01:50:44;61.28;;;16.95;;
69854;SDS011;57146;48.140;16.304;2022-11-15T01:53:30;52.78;;;15.35;;
69854;SDS011;57146;48.140;16.304;2022-11-15T01:56:20;53.03;;;15.27;;
69854;SDS011;57146;48.140;16.304;2022-11-15T01:59:08;57.55;;;16.20;;
69854;SDS011;57146;48.140;16.304;2022-11-15T02:01:54;50.83;;;15.05;;
69854;SDS011;57146;48.140;16.304;2022-11-15T02:04:41;61.95;;;16.25;;
69854;SDS011;57146;48.140;16.304;2022-11-15T02:07:29;56.13;;;16.02;;
69854;SDS011;57146;48.140;16.304;2022-11-15T02:10:18;51.87;;;15.10;;
69854;SDS011;57146;48.140;16.304;2022-11-15T02:13:05;57.45;;;15.93;;
69854;SDS011;57146;48.140;16.304;2022-11-15T02:15:58;53.58;;;15.32;;
69854;SDS011;57146;48.140;16.304;2022-11-15T02:28:10;52.30;;;15.07;;
69854;SDS011;57146;48.140;16.304;2022-11-15T02:31:18;60.20;;;16.38;;
69854;SDS011;57146;48.140;16.304;2022-11-15T02:37:25;55.35;;;15.55;;
69854;SDS011;57146;48.140;16.304;2022-11-15T02:40:33;52.63;;;13.93;;
69854;SDS011;57146;48.140;16.304;2022-11-15T02:46:58;49.08;;;14.52;;
69854;SDS011;57146;48.140;16.304;2022-11-15T02:49:48;52.22;;;14.50;;
69854;SDS011;57146;48.140;16.304;2022-11-15T02:52:38;52.40;;;14.38;;
69854;SDS011;57146;48.140;16.304;2022-11-15T03:01:21;56.58;;;15.73;;
69854;SDS011;57146;48.140;16.304;2022-11-15T03:11:29;49.60;;;14.77;;
69854;SDS011;57146;48.140;16.304;2022-11-15T03:16:59;45.05;;;13.98;;
69854;SDS011;57146;48.140;16.304;2022-11-15T03:19:59;49.50;;;14.55;;
69854;SDS011;57146;48.140;16.304;2022-11-15T03:22:49;44.22;;;13.60;;
69854;SDS011;57146;48.140;16.304;2022-11-15T03:25:36;43.73;;;14.13;;
69854;SDS011;57146;48.140;16.304;2022-11-15T03:28:37;42.58;;;12.80;;
69854;SDS011;57146;48.140;16.304;2022-11-15T03:31:31;48.15;;;13.90;;
69854;SDS011;57146;48.140;16.304;2022-11-15T03:34:22;43.45;;;13.13;;
69854;SDS011;57146;48.140;16.304;2022-11-15T03:37:20;43.17;;;12.93;;
69854;SDS011;57146;48.140;16.304;2022-11-15T03:40:08;40.33;;;12.67;;
69854;SDS011;57146;48.140;16.304;2022-11-15T03:46:04;42.92;;;13.20;;
69854;SDS011;57146;48.140;16.304;2022-11-15T03:49:32;40.08;;;12.85;;
69854;SDS011;57146;48.140;16.304;2022-11-15T03:52:23;38.83;;;12.07;;
69854;SDS011;57146;48.140;16.304;2022-11-15T03:55:10;39.03;;;12.37;;
69854;SDS011;57146;48.140;16.304;2022-11-15T03:57:59;42.47;;;12.48;;
69854;SDS011;57146;48.140;16.304;2022-11-15T04:00:46;49.05;;;13.20;;
69854;SDS011;57146;48.140;16.304;2022-11-15T04:03:31;49.50;;;13.55;;
69854;SDS011;57146;48.140;16.304;2022-11-15T04:06:17;42.78;;;12.50;;
69854;SDS011;57146;48.140;16.304;2022-11-15T04:09:03;46.63;;;13.20;;
69854;SDS011;57146;48.140;16.304;2022-11-15T04:11:49;53.78;;;13.80;;
69854;SDS011;57146;48.140;16.304;2022-11-15T04:14:34;45.53;;;13.55;;
69854;SDS011;57146;48.140;16.304;2022-11-15T04:17:19;43.85;;;12.82;;
69854;SDS011;57146;48.140;16.304;2022-11-15T04:20:05;44.88;;;13.52;;
69854;SDS011;57146;48.140;16.304;2022-11-15T04:22:55;42.63;;;12.90;;
69854;SDS011;57146;48.140;16.304;2022-11-15T04:25:42;49.22;;;13.63;;
69854;SDS011;57146;48.140;16.304;2022-11-15T04:28:28;42.35;;;12.40;;
69854;SDS011;57146;48.140;16.304;2022-11-15T04:31:13;47.83;;;13.02;;
69854;SDS011;57146;48.140;16.304;2022-11-15T04:33:59;51.35;;;14.52;;
69854;SDS011;57146;48.140;16.304;2022-11-15T04:36:44;53.00;;;13.80;;
69854;SDS011;57146;48.140;16.304;2022-11-15T04:39:29;48.25;;;13.75;;
69854;SDS011;57146;48.140;16.304;2022-11-15T04:42:15;44.72;;;13.10;;
69854;SDS011;57146;48.140;16.304;2022-11-15T04:45:00;46.03;;;13.43;;
69854;SDS011;57146;48.140;16.304;2022-11-15T04:47:45;48.28;;;13.65;;
69854;SDS011;57146;48.140;16.304;2022-11-15T04:50:31;48.50;;;13.63;;
69854;SDS011;57146;48.140;16.304;2022-11-15T04:53:16;45.55;;;13.32;;
69854;SDS011;57146;48.140;16.304;2022-11-15T04:56:02;40.47;;;12.35;;
69854;SDS011;57146;48.140;16.304;2022-11-15T04:58:50;44.95;;;13.23;;
69854;SDS011;57146;48.140;16.304;2022-11-15T05:01:36;49.08;;;13.15;;
69854;SDS011;57146;48.140;16.304;2022-11-15T05:04:28;47.83;;;13.37;;
69854;SDS011;57146;48.140;16.304;2022-11-15T05:07:14;48.03;;;13.32;;
69854;SDS011;57146;48.140;16.304;2022-11-15T05:09:59;45.22;;;12.98;;
69854;SDS011;57146;48.140;16.304;2022-11-15T05:12:45;49.05;;;13.68;;
69854;SDS011;57146;48.140;16.304;2022-11-15T05:15:38;45.22;;;12.57;;
69854;SDS011;57146;48.140;16.304;2022-11-15T05:18:24;42.93;;;12.33;;
69854;SDS011;57146;48.140;16.304;2022-11-15T05:21:10;45.95;;;12.98;;
69854;SDS011;57146;48.140;16.304;2022-11-15T05:23:59;42.72;;;12.43;;
69854;SDS011;57146;48.140;16.304;2022-11-15T05:26:44;43.20;;;12.70;;
69854;SDS011;57146;48.140;16.304;2022-11-15T05:29:29;46.38;;;12.73;;
69854;SDS011;57146;48.140;16.304;2022-11-15T05:32:17;45.70;;;13.63;;
69854;SDS011;57146;48.140;16.304;2022-11-15T05:35:02;47.22;;;12.95;;
69854;SDS011;57146;48.140;16.304;2022-11-15T05:37:52;46.53;;;13.50;;
69854;SDS011;57146;48.140;16.304;2022-11-15T05:40:38;47.38;;;13.52;;
69854;SDS011;57146;48.140;16.304;2022-11-15T05:43:23;50.13;;;13.82;;
69854;SDS011;57146;48.140;16.304;2022-11-15T05:46:09;49.97;;;13.77;;
69854;SDS011;57146;48.140;16.304;2022-11-15T05:49:20;46.58;;;13.93;;
69854;SDS011;57146;48.140;16.304;2022-11-15T05:52:10;56.13;;;14.65;;
69854;SDS011;57146;48.140;16.304;2022-11-15T05:54:58;65.30;;;14.63;;
69854;SDS011;57146;48.140;16.304;2022-11-15T05:57:44;73.05;;;16.60;;
69854;SDS011;57146;48.140;16.304;2022-11-15T06:00:30;53.93;;;14.03;;
69854;SDS011;57146;48.140;16.304;2022-11-15T06:03:15;49.58;;;13.45;;
69854;SDS011;57146;48.140;16.304;2022-11-15T06:06:00;53.35;;;14.90;;
69854;SDS011;57146;48.140;16.304;2022-11-15T06:08:46;54.08;;;14.50;;
69854;SDS011;57146;48.140;16.304;2022-11-15T06:11:31;57.42;;;14.48;;
69854;SDS011;57146;48.140;16.304;2022-11-15T06:14:16;70.97;;;16.00;;
69854;SDS011;57146;48.140;16.304;2022-11-15T06:17:01;60.38;;;15.35;;
69854;SDS011;57146;48.140;16.304;2022-11-15T06:19:54;56.70;;;15.38;;
69854;SDS011;57146;48.140;16.304;2022-11-15T06:22:39;50.17;;;15.02;;
69854;SDS011;57146;48.140;16.304;2022-11-15T06:25:25;55.72;;;14.43;;
69854;SDS011;57146;48.140;16.304;2022-11-15T06:28:12;53.73;;;14.40;;
69854;SDS011;57146;48.140;16.304;2022-11-15T06:31:08;58.90;;;14.98;;
69854;SDS011;57146;48.140;16.304;2022-11-15T06:33:55;63.38;;;15.32;;
69854;SDS011;57146;48.140;16.304;2022-11-15T06:36:41;60.92;;;15.45;;
69854;SDS011;57146;48.140;16.304;2022-11-15T06:39:26;58.20;;;14.90;;
69854;SDS011;57146;48.140;16.304;2022-11-15T06:42:11;54.30;;;14.80;;
69854;SDS011;57146;48.140;16.304;2022-11-15T06:44:56;59.88;;;15.05;;
69854;SDS011;57146;48.140;16.304;2022-11-15T06:47:45;78.00;;;15.70;;
69854;SDS011;57146;48.140;16.304;2022-11-15T06:50:31;65.32;;;15.85;;
69854;SDS011;57146;48.140;16.304;2022-11-15T06:53:18;56.70;;;15.13;;
69854;SDS011;57146;48.140;16.304;2022-11-15T06:56:05;48.60;;;13.20;;
69854;SDS011;57146;48.140;16.304;2022-11-15T06:58:51;50.35;;;13.85;;
69854;SDS011;57146;48.140;16.304;2022-11-15T07:01:37;59.10;;;14.63;;
69854;SDS011;57146;48.140;16.304;2022-11-15T07:04:23;52.83;;;13.90;;
69854;SDS011;57146;48.140;16.304;2022-11-15T07:07:08;46.13;;;13.25;;
69854;SDS011;57146;48.140;16.304;2022-11-15T07:09:54;45.63;;;12.40;;
69854;SDS011;57146;48.140;16.304;2022-11-15T07:12:39;45.25;;;12.77;;
69854;SDS011;57146;48.140;16.304;2022-11-15T07:15:25;51.80;;;13.23;;
69854;SDS011;57146;48.140;16.304;2022-11-15T07:18:11;40.53;;;12.52;;
69854;SDS011;57146;48.140;16.304;2022-11-15T07:20:59;52.25;;;13.35;;
69854;SDS011;57146;48.140;16.304;2022-11-15T07:23:45;58.53;;;13.83;;
69854;SDS011;57146;48.140;16.304;2022-11-15T07:26:31;58.70;;;14.77;;
69854;SDS011;57146;48.140;16.304;2022-11-15T07:29:16;44.60;;;13.13;;
69854;SDS011;57146;48.140;16.304;2022-11-15T07:32:01;42.60;;;12.95;;
69854;SDS011;57146;48.140;16.304;2022-11-15T07:34:47;39.90;;;11.95;;
69854;SDS011;57146;48.140;16.304;2022-11-15T07:37:32;45.20;;;12.70;;
69854;SDS011;57146;48.140;16.304;2022-11-15T07:40:17;46.80;;;13.77;;
69854;SDS011;57146;48.140;16.304;2022-11-15T07:43:04;45.45;;;12.80;;
69854;SDS011;57146;48.140;16.304;2022-11-15T07:45:50;43.13;;;11.80;;
69854;SDS011;57146;48.140;16.304;2022-11-15T07:48:42;49.75;;;13.43;;
69854;SDS011;57146;48.140;16.304;2022-11-15T07:51:29;38.27;;;11.87;;
69854;SDS011;57146;48.140;16.304;2022-11-15T07:54:14;46.63;;;12.65;;
69854;SDS011;57146;48.140;16.304;2022-11-15T07:56:59;43.20;;;12.65;;
69854;SDS011;57146;48.140;16.304;2022-11-15T07:59:51;41.70;;;12.85;;
69854;SDS011;57146;48.140;16.304;2022-11-15T08:02:37;41.72;;;11.63;;
69854;SDS011;57146;48.140;16.304;2022-11-15T08:05:23;44.30;;;12.70;;
69854;SDS011;57146;48.140;16.304;2022-11-15T08:08:09;50.75;;;14.20;;
69854;SDS011;57146;48.140;16.304;2022-11-15T08:10:59;43.38;;;12.60;;
69854;SDS011;57146;48.140;16.304;2022-11-15T08:13:45;57.67;;;14.15;;
69854;SDS011;57146;48.140;16.304;2022-11-15T08:16:31;41.92;;;11.48;;
69854;SDS011;57146;48.140;16.304;2022-11-15T08:19:16;40.80;;;12.37;;
69854;SDS011;57146;48.140;16.304;2022-11-15T08:22:01;38.97;;;11.18;;
69854;SDS011;57146;48.140;16.304;2022-11-15T08:24:47;42.47;;;12.82;;
69854;SDS011;57146;48.140;16.304;2022-11-15T08:27:33;38.03;;;11.10;;
69854;SDS011;57146;48.140;16.304;2022-11-15T08:30:19;44.15;;;12.40;;
69854;SDS011;57146;48.140;16.304;2022-11-15T08:33:05;40.97;;;11.77;;
69854;SDS011;57146;48.140;16.304;2022-11-15T08:35:50;44.42;;;12.05;;
69854;SDS011;57146;48.140;16.304;2022-11-15T08:38:36;44.80;;;11.25;;
69854;SDS011;57146;48.140;16.304;2022-11-15T08:41:31;35.20;;;10.65;;
69854;SDS011;57146;48.140;16.304;2022-11-15T08:44:18;40.90;;;11.15;;
69854;SDS011;57146;48.140;16.304;2022-11-15T08:47:04;43.07;;;11.47;;
69854;SDS011;57146;48.140;16.304;2022-11-15T08:49:49;38.88;;;11.23;;
69854;SDS011;57146;48.140;16.304;2022-11-15T08:52:35;39.60;;;11.82;;
69854;SDS011;57146;48.140;16.304;2022-11-15T08:55:20;44.65;;;12.63;;
69854;SDS011;57146;48.140;16.304;2022-11-15T08:58:08;46.80;;;12.30;;
69854;SDS011;57146;48.140;16.304;2022-11-15T09:00:54;46.80;;;12.43;;
69854;SDS011;57146;48.140;16.304;2022-11-15T09:03:40;54.05;;;13.65;;
69854;SDS011;57146;48.140;16.304;2022-11-15T09:06:25;49.33;;;12.48;;
69854;SDS011;57146;48.140;16.304;2022-11-15T09:09:11;45.25;;;11.85;;
69854;SDS011;57146;48.140;16.304;2022-11-15T09:11:56;47.03;;;12.13;;
69854;SDS011;57146;48.140;16.304;2022-11-15T09:14:47;50.30;;;13.33;;
69854;SDS011;57146;48.140;16.304;2022-11-15T09:17:32;44.63;;;11.80;;
69854;SDS011;57146;48.140;16.304;2022-11-15T09:20:17;45.95;;;12.63;;
69854;SDS011;57146;48.140;16.304;2022-11-15T09:23:03;45.50;;;12.07;;
69854;SDS011;57146;48.140;16.304;2022-11-15T09:25:49;48.30;;;12.73;;
69854;SDS011;57146;48.140;16.304;2022-11-15T09:28:35;43.93;;;12.03;;
69854;SDS011;57146;48.140;16.304;2022-11-15T09:31:21;47.70;;;13.52;;
69854;SDS011;57146;48.140;16.304;2022-11-15T09:34:07;50.85;;;13.77;;
69854;SDS011;57146;48.140;16.304;2022-11-15T09:36:52;43.33;;;12.00;;
69854;SDS011;57146;48.140;16.304;2022-11-15T09:39:38;51.00;;;13.43;;
69854;SDS011;57146;48.140;16.304;2022-11-15T09:45:32;67.32;;;15.02;;
69854;SDS011;57146;48.140;16.304;2022-11-15T09:48:36;59.10;;;14.95;;
69854;SDS011;57146;48.140;16.304;2022-11-15T09:51:25;67.30;;;15.75;;
69854;SDS011;57146;48.140;16.304;2022-11-15T09:53:57;55.38;;;15.68;;
69854;SDS011;57146;48.140;16.304;2022-11-15T09:57:04;62.47;;;16.53;;
69854;SDS011;57146;48.140;16.304;2022-11-15T09:59:59;79.03;;;18.25;;
69854;SDS011;57146;48.140;16.304;2022-11-15T10:05:30;64.43;;;15.98;;
69854;SDS011;57146;48.140;16.304;2022-11-15T10:08:26;60.03;;;17.17;;
69854;SDS011;57146;48.140;16.304;2022-11-15T10:11:27;66.73;;;15.87;;
69854;SDS011;57146;48.140;16.304;2022-11-15T10:14:25;58.33;;;15.20;;
69854;SDS011;57146;48.140;16.304;2022-11-15T10:22:38;59.33;;;15.80;;
69854;SDS011;57146;48.140;16.304;2022-11-15T10:27:34;54.90;;;15.15;;
69854;SDS011;57146;48.140;16.304;2022-11-15T10:30:03;56.60;;;14.10;;
69854;SDS011;57146;48.140;16.304;2022-11-15T10:32:30;51.38;;;13.98;;
69854;SDS011;57146;48.140;16.304;2022-11-15T10:35:01;51.00;;;13.38;;
69854;SDS011;57146;48.140;16.304;2022-11-15T10:37:43;45.30;;;13.17;;
69854;SDS011;57146;48.140;16.304;2022-11-15T10:42:44;51.40;;;13.43;;
69854;SDS011;57146;48.140;16.304;2022-11-15T10:45:27;51.20;;;13.57;;
69854;SDS011;57146;48.140;16.304;2022-11-15T10:50:45;43.07;;;12.40;;
69854;SDS011;57146;48.140;16.304;2022-11-15T10:53:33;41.25;;;11.60;;
69854;SDS011;57146;48.140;16.304;2022-11-15T10:56:11;42.83;;;11.98;;
69854;SDS011;57146;48.140;16.304;2022-11-15T10:58:41;43.30;;;12.07;;
69854;SDS011;57146;48.140;16.304;2022-11-15T11:01:14;42.58;;;12.63;;
69854;SDS011;57146;48.140;16.304;2022-11-15T11:03:44;46.37;;;12.97;;
69854;SDS011;57146;48.140;16.304;2022-11-15T11:06:48;45.35;;;13.05;;
69854;SDS011;57146;48.140;16.304;2022-11-15T11:09:32;46.58;;;12.77;;
69854;SDS011;57146;48.140;16.304;2022-11-15T11:12:01;38.70;;;12.07;;
69854;SDS011;57146;48.140;16.304;2022-11-15T11:14:31;40.75;;;11.70;;
69854;SDS011;57146;48.140;16.304;2022-11-15T11:23:13;45.05;;;13.02;;
69854;SDS011;57146;48.140;16.304;2022-11-15T11:26:09;54.67;;;14.63;;
69854;SDS011;57146;48.140;16.304;2022-11-15T11:29:01;41.45;;;12.45;;
69854;SDS011;57146;48.140;16.304;2022-11-15T11:31:58;43.90;;;12.53;;
69854;SDS011;57146;48.140;16.304;2022-11-15T11:52:03;48.10;;;13.98;;
69854;SDS011;57146;48.140;16.304;2022-11-15T11:55:38;45.63;;;12.90;;
69854;SDS011;57146;48.140;16.304;2022-11-15T11:58:09;50.13;;;13.48;;
69854;SDS011;57146;48.140;16.304;2022-11-15T12:00:43;47.97;;;12.97;;
69854;SDS011;57146;48.140;16.304;2022-11-15T12:03:45;51.53;;;14.15;;
69854;SDS011;57146;48.140;16.304;2022-11-15T12:06:36;46.33;;;13.35;;
69854;SDS011;57146;48.140;16.304;2022-11-15T12:14:47;55.70;;;15.13;;
69854;SDS011;57146;48.140;16.304;2022-11-15T12:17:17;53.53;;;15.27;;
69854;SDS011;57146;48.140;16.304;2022-11-15T12:19:49;55.53;;;14.95;;
69854;SDS011;57146;48.140;16.304;2022-11-15T12:22:23;47.55;;;13.50;;
69854;SDS011;57146;48.140;16.304;2022-11-15T12:25:00;47.17;;;13.50;;
69854;SDS011;57146;48.140;16.304;2022-11-15T12:27:33;48.97;;;13.87;;
69854;SDS011;57146;48.140;16.304;2022-11-15T12:30:09;49.38;;;14.40;;
69854;SDS011;57146;48.140;16.304;2022-11-15T12:32:41;64.18;;;16.50;;
69854;SDS011;57146;48.140;16.304;2022-11-15T12:35:25;48.47;;;14.25;;
69854;SDS011;57146;48.140;16.304;2022-11-15T12:38:01;50.67;;;14.57;;
69854;SDS011;57146;48.140;16.304;2022-11-15T12:40:33;51.27;;;14.33;;
69854;SDS011;57146;48.140;16.304;2022-11-15T12:43:03;49.55;;;14.52;;
69854;SDS011;57146;48.140;16.304;2022-11-15T12:45:38;50.25;;;14.98;;
69854;SDS011;57146;48.140;16.304;2022-11-15T12:56:17;61.72;;;17.25;;
69854;SDS011;57146;48.140;16.304;2022-11-15T13:06:48;57.87;;;17.97;;
69854;SDS011;57146;48.140;16.304;2022-11-15T13:09:49;61.15;;;17.00;;
69854;SDS011;57146;48.140;16.304;2022-11-15T13:14:56;62.33;;;18.50;;
69854;SDS011;57146;48.140;16.304;2022-11-15T13:17:29;69.32;;;19.58;;
69854;SDS011;57146;48.140;16.304;2022-11-15T13:20:00;71.10;;;19.63;;
69854;SDS011;57146;48.140;16.304;2022-11-15T13:22:39;72.07;;;19.80;;
69854;SDS011;57146;48.140;16.304;2022-11-15T13:28:03;59.00;;;17.95;;
69854;SDS011;57146;48.140;16.304;2022-11-15T13:30:36;53.35;;;16.85;;
69854;SDS011;57146;48.140;16.304;2022-11-15T13:33:08;59.33;;;17.93;;
69854;SDS011;57146;48.140;16.304;2022-11-15T13:35:45;58.47;;;17.90;;
69854;SDS011;57146;48.140;16.304;2022-11-15T13:38:25;51.17;;;16.83;;
69854;SDS011;57146;48.140;16.304;2022-11-15T13:40:58;54.00;;;17.35;;
69854;SDS011;57146;48.140;16.304;2022-11-15T13:43:31;51.63;;;17.00;;
69854;SDS011;57146;48.140;16.304;2022-11-15T13:46:05;49.90;;;16.53;;
69854;SDS011;57146;48.140;16.304;2022-11-15T13:48:53;64.60;;;17.63;;
69854;SDS011;57146;48.140;16.304;2022-11-15T13:51:37;59.45;;;17.92;;
69854;SDS011;57146;48.140;16.304;2022-11-15T13:56:48;47.65;;;15.50;;
69854;SDS011;57146;48.140;16.304;2022-11-15T13:59:25;56.03;;;17.33;;
69854;SDS011;57146;48.140;16.304;2022-11-15T14:01:54;52.95;;;17.08;;
69854;SDS011;57146;48.140;16.304;2022-11-15T14:04:25;50.25;;;16.63;;
69854;SDS011;57146;48.140;16.304;2022-11-15T14:07:00;52.35;;;16.10;;
69854;SDS011;57146;48.140;16.304;2022-11-15T14:09:31;58.85;;;17.90;;
69854;SDS011;57146;48.140;16.304;2022-11-15T14:12:01;49.87;;;15.97;;
69854;SDS011;57146;48.140;16.304;2022-11-15T14:14:29;52.08;;;17.15;;
69854;SDS011;57146;48.140;16.304;2022-11-15T14:17:00;53.03;;;17.50;;
69854;SDS011;57146;48.140;16.304;2022-11-15T14:24:38;45.13;;;14.63;;
69854;SDS011;57146;48.140;16.304;2022-11-15T14:29:52;46.72;;;16.40;;
69854;SDS011;57146;48.140;16.304;2022-11-15T14:32:29;50.38;;;16.70;;
69854;SDS011;57146;48.140;16.304;2022-11-15T14:35:09;52.55;;;17.50;;
69854;SDS011;57146;48.140;16.304;2022-11-15T14:37:41;50.93;;;16.83;;
69854;SDS011;57146;48.140;16.304;2022-11-15T14:40:08;45.00;;;15.68;;
69854;SDS011;57146;48.140;16.304;2022-11-15T14:42:46;45.45;;;15.60;;
69854;SDS011;57146;48.140;16.304;2022-11-15T14:45:18;47.22;;;15.00;;
69854;SDS011;57146;48.140;16.304;2022-11-15T14:47:47;45.90;;;15.15;;
69854;SDS011;57146;48.140;16.304;2022-11-15T14:50:15;48.47;;;15.93;;
69854;SDS011;57146;48.140;16.304;2022-11-15T14:52:45;52.65;;;17.25;;
69854;SDS011;57146;48.140;16.304;2022-11-15T14:55:23;45.95;;;16.08;;
69854;SDS011;57146;48.140;16.304;2022-11-15T14:57:53;51.83;;;17.35;;
69854;SDS011;57146;48.140;16.304;2022-11-15T15:00:22;51.13;;;16.88;;
69854;SDS011;57146;48.140;16.304;2022-11-15T15:03:03;49.33;;;17.83;;
69854;SDS011;57146;48.140;16.304;2022-11-15T15:05:36;45.63;;;17.13;;
69854;SDS011;57146;48.140;16.304;2022-11-15T15:08:08;46.78;;;17.08;;
69854;SDS011;57146;48.140;16.304;2022-11-15T15:10:38;47.85;;;16.45;;
69854;SDS011;57146;48.140;16.304;2022-11-15T15:13:18;46.25;;;16.90;;
69854;SDS011;57146;48.140;16.304;2022-11-15T15:15:48;47.27;;;16.97;;
69854;SDS011;57146;48.140;16.304;2022-11-15T15:18:18;46.53;;;16.92;;
69854;SDS011;57146;48.140;16.304;2022-11-15T15:20:47;47.90;;;17.45;;
69854;SDS011;57146;48.140;16.304;2022-11-15T15:23:20;50.03;;;18.65;;
69854;SDS011;57146;48.140;16.304;2022-11-15T15:25:47;53.35;;;18.90;;
69854;SDS011;57146;48.140;16.304;2022-11-15T15:28:15;56.30;;;20.70;;
69854;SDS011;57146;48.140;16.304;2022-11-15T15:30:43;51.28;;;18.75;;
69854;SDS011;57146;48.140;16.304;2022-11-15T15:33:12;46.78;;;18.38;;
69854;SDS011;57146;48.140;16.304;2022-11-15T15:36:14;47.85;;;17.33;;
69854;SDS011;57146;48.140;16.304;2022-11-15T15:38:44;49.78;;;18.23;;
69854;SDS011;57146;48.140;16.304;2022-11-15T15:41:11;51.37;;;18.70;;
69854;SDS011;57146;48.140;16.304;2022-11-15T15:43:40;52.42;;;19.35;;
69854;SDS011;57146;48.140;16.304;2022-11-15T15:46:10;51.33;;;19.55;;
69854;SDS011;57146;48.140;16.304;2022-11-15T15:48:39;53.08;;;19.08;;
69854;SDS011;57146;48.140;16.304;2022-11-15T15:51:06;49.45;;;18.23;;
69854;SDS011;57146;48.140;16.304;2022-11-15T15:53:45;44.50;;;17.47;;
69854;SDS011;57146;48.140;16.304;2022-11-15T15:56:12;49.50;;;18.73;;
69854;SDS011;57146;48.140;16.304;2022-11-15T15:58:39;51.85;;;19.65;;
69854;SDS011;57146;48.140;16.304;2022-11-15T16:01:06;50.20;;;18.85;;
69854;SDS011;57146;48.140;16.304;2022-11-15T16:03:33;54.95;;;20.83;;
69854;SDS011;57146;48.140;16.304;2022-11-15T16:06:00;49.80;;;19.27;;
69854;SDS011;57146;48.140;16.304;2022-11-15T16:08:27;58.22;;;20.52;;
69854;SDS011;57146;48.140;16.304;2022-11-15T16:11:14;51.72;;;19.17;;
69854;SDS011;57146;48.140;16.304;2022-11-15T16:13:41;58.78;;;20.73;;
69854;SDS011;57146;48.140;16.304;2022-11-15T16:16:10;58.80;;;21.50;;
69854;SDS011;57146;48.140;16.304;2022-11-15T16:18:39;53.10;;;19.37;;
69854;SDS011;57146;48.140;16.304;2022-11-15T16:21:07;48.70;;;18.55;;
69854;SDS011;57146;48.140;16.304;2022-11-15T16:23:34;43.90;;;16.77;;
69854;SDS011;57146;48.140;16.304;2022-11-15T16:26:01;43.92;;;16.27;;
69854;SDS011;57146;48.140;16.304;2022-11-15T16:28:29;45.45;;;16.55;;
69854;SDS011;57146;48.140;16.304;2022-11-15T16:31:10;43.87;;;15.90;;
69854;SDS011;57146;48.140;16.304;2022-11-15T16:33:39;50.13;;;16.77;;
69854;SDS011;57146;48.140;16.304;2022-11-15T16:36:14;41.80;;;14.60;;
69854;SDS011;57146;48.140;16.304;2022-11-15T16:38:47;47.05;;;16.00;;
69854;SDS011;57146;48.140;16.304;2022-11-15T16:41:15;48.60;;;16.80;;
69854;SDS011;57146;48.140;16.304;2022-11-15T16:43:48;45.97;;;15.47;;
69854;SDS011;57146;48.140;16.304;2022-11-15T16:48:52;42.72;;;15.05;;
69854;SDS011;57146;48.140;16.304;2022-11-15T16:51:20;41.45;;;15.27;;
69854;SDS011;57146;48.140;16.304;2022-11-15T16:53:48;40.55;;;14.82;;
69854;SDS011;57146;48.140;16.304;2022-11-15T16:58:55;41.78;;;15.07;;
69854;SDS011;57146;48.140;16.304;2022-11-15T17:01:25;44.75;;;15.48;;
69854;SDS011;57146;48.140;16.304;2022-11-15T17:03:52;41.30;;;14.70;;
69854;SDS011;57146;48.140;16.304;2022-11-15T17:06:20;42.47;;;15.27;;
69854;SDS011;57146;48.140;16.304;2022-11-15T17:08:53;39.73;;;14.47;;
69854;SDS011;57146;48.140;16.304;2022-11-15T17:11:23;45.38;;;15.90;;
69854;SDS011;57146;48.140;16.304;2022-11-15T17:13:50;45.47;;;16.70;;
69854;SDS011;57146;48.140;16.304;2022-11-15T17:16:24;48.25;;;16.77;;
69854;SDS011;57146;48.140;16.304;2022-11-15T17:18:53;43.03;;;15.35;;
69854;SDS011;57146;48.140;16.304;2022-11-15T17:21:22;39.00;;;14.50;;
69854;SDS011;57146;48.140;16.304;2022-11-15T17:23:49;47.92;;;15.68;;
69854;SDS011;57146;48.140;16.304;2022-11-15T17:26:16;41.83;;;15.25;;
69854;SDS011;57146;48.140;16.304;2022-11-15T17:29:00;40.28;;;14.55;;
69854;SDS011;57146;48.140;16.304;2022-11-15T17:32:03;43.38;;;15.02;;
69854;SDS011;57146;48.140;16.304;2022-11-15T17:34:31;40.33;;;13.63;;
69854;SDS011;57146;48.140;16.304;2022-11-15T17:36:58;40.95;;;14.43;;